sensor_id;sensor_type;location;lat;lon;timestamp;P1;durP1;ratioP1;P2;durP2;ratioP2
60655;SDS011;46477;53.616;10.064;2022-08-19T00:00:05;10.30;;;7.75;;
60655;SDS011;46477;53.616;10.064;2022-08-19T00:02:33;10.38;;;6.90;;
60655;SDS011;46477;53.616;10.064;2022-08-19T00:04:58;9.57;;;6.70;;
60655;SDS011;46477;53.616;10.064;2022-08-19T00:07:24;11.25;;;7.55;;
60655;SDS011;46477;53.616;10.064;2022-08-19T00:09:49;10.30;;;7.65;;
60655;SDS011;46477;53.616;10.064;2022-08-19T00:12:14;12.27;;;8.65;;
60655;SDS011;46477;53.616;10.064;2022-08-19T00:14:40;11.57;;;8.57;;
60655;SDS011;46477;53.616;10.064;2022-08-19T00:17:06;10.10;;;7.25;;
60655;SDS011;46477;53.616;10.064;2022-08-19T00:19:33;13.00;;;8.57;;
60655;SDS011;46477;53.616;10.064;2022-08-19T00:22:00;13.48;;;8.80;;
60655;SDS011;46477;53.616;10.064;2022-08-19T00:24:27;12.10;;;9.25;;
60655;SDS011;46477;53.616;10.064;2022-08-19T00:26:53;11.60;;;8.05;;
60655;SDS011;46477;53.616;10.064;2022-08-19T00:29:22;13.77;;;8.55;;
60655;SDS011;46477;53.616;10.064;2022-08-19T00:31:49;11.07;;;8.23;;
60655;SDS011;46477;53.616;10.064;2022-08-19T00:34:18;14.73;;;9.30;;
60655;SDS011;46477;53.616;10.064;2022-08-19T00:36:44;12.60;;;8.73;;
60655;SDS011;46477;53.616;10.064;2022-08-19T00:39:10;12.82;;;9.32;;
60655;SDS011;46477;53.616;10.064;2022-08-19T00:41:36;11.73;;;9.13;;
60655;SDS011;46477;53.616;10.064;2022-08-19T00:46:30;12.27;;;9.35;;
60655;SDS011;46477;53.616;10.064;2022-08-19T00:48:58;12.75;;;9.25;;
60655;SDS011;46477;53.616;10.064;2022-08-19T00:51:26;12.57;;;7.90;;
60655;SDS011;46477;53.616;10.064;2022-08-19T00:53:54;13.35;;;8.63;;
60655;SDS011;46477;53.616;10.064;2022-08-19T00:56:21;13.15;;;8.32;;
60655;SDS011;46477;53.616;10.064;2022-08-19T00:58:48;15.48;;;9.43;;
60655;SDS011;46477;53.616;10.064;2022-08-19T01:01:14;15.45;;;8.65;;
60655;SDS011;46477;53.616;10.064;2022-08-19T01:03:39;13.20;;;9.02;;
60655;SDS011;46477;53.616;10.064;2022-08-19T01:06:05;15.75;;;10.13;;
60655;SDS011;46477;53.616;10.064;2022-08-19T01:08:30;15.32;;;11.00;;
60655;SDS011;46477;53.616;10.064;2022-08-19T01:10:57;11.93;;;9.40;;
60655;SDS011;46477;53.616;10.064;2022-08-19T01:13:25;12.75;;;9.10;;
60655;SDS011;46477;53.616;10.064;2022-08-19T01:16:04;12.80;;;9.50;;
60655;SDS011;46477;53.616;10.064;2022-08-19T01:18:32;15.00;;;10.70;;
60655;SDS011;46477;53.616;10.064;2022-08-19T01:21:02;14.88;;;10.30;;
60655;SDS011;46477;53.616;10.064;2022-08-19T01:23:41;18.50;;;10.20;;
60655;SDS011;46477;53.616;10.064;2022-08-19T01:26:09;13.48;;;9.20;;
60655;SDS011;46477;53.616;10.064;2022-08-19T01:28:37;14.20;;;10.15;;
60655;SDS011;46477;53.616;10.064;2022-08-19T01:31:04;11.07;;;7.88;;
60655;SDS011;46477;53.616;10.064;2022-08-19T01:33:29;13.13;;;9.43;;
60655;SDS011;46477;53.616;10.064;2022-08-19T01:36:22;12.55;;;9.15;;
60655;SDS011;46477;53.616;10.064;2022-08-19T01:38:56;19.30;;;13.15;;
60655;SDS011;46477;53.616;10.064;2022-08-19T01:41:23;15.25;;;11.05;;
60655;SDS011;46477;53.616;10.064;2022-08-19T01:43:50;13.60;;;9.63;;
60655;SDS011;46477;53.616;10.064;2022-08-19T01:46:17;13.63;;;9.05;;
60655;SDS011;46477;53.616;10.064;2022-08-19T01:48:42;17.65;;;11.95;;
60655;SDS011;46477;53.616;10.064;2022-08-19T01:51:09;15.15;;;9.55;;
60655;SDS011;46477;53.616;10.064;2022-08-19T01:53:36;14.75;;;9.98;;
60655;SDS011;46477;53.616;10.064;2022-08-19T01:56:02;12.40;;;9.18;;
60655;SDS011;46477;53.616;10.064;2022-08-19T01:58:30;13.82;;;9.55;;
60655;SDS011;46477;53.616;10.064;2022-08-19T02:01:01;16.63;;;10.52;;
60655;SDS011;46477;53.616;10.064;2022-08-19T02:03:27;15.45;;;10.15;;
60655;SDS011;46477;53.616;10.064;2022-08-19T02:05:56;18.75;;;11.82;;
60655;SDS011;46477;53.616;10.064;2022-08-19T02:10:52;13.75;;;10.30;;
60655;SDS011;46477;53.616;10.064;2022-08-19T02:13:17;16.00;;;10.43;;
60655;SDS011;46477;53.616;10.064;2022-08-19T02:15:43;18.60;;;11.52;;
60655;SDS011;46477;53.616;10.064;2022-08-19T02:18:08;17.80;;;12.65;;
60655;SDS011;46477;53.616;10.064;2022-08-19T02:20:34;16.25;;;10.45;;
60655;SDS011;46477;53.616;10.064;2022-08-19T02:23:00;17.08;;;10.95;;
60655;SDS011;46477;53.616;10.064;2022-08-19T02:25:26;16.08;;;11.00;;
60655;SDS011;46477;53.616;10.064;2022-08-19T02:27:52;16.77;;;11.02;;
60655;SDS011;46477;53.616;10.064;2022-08-19T02:30:19;15.57;;;10.73;;
60655;SDS011;46477;53.616;10.064;2022-08-19T02:32:44;16.67;;;10.73;;
60655;SDS011;46477;53.616;10.064;2022-08-19T02:35:10;15.25;;;10.05;;
60655;SDS011;46477;53.616;10.064;2022-08-19T02:37:37;15.38;;;10.65;;
60655;SDS011;46477;53.616;10.064;2022-08-19T02:40:21;16.05;;;9.43;;
60655;SDS011;46477;53.616;10.064;2022-08-19T02:42:46;14.07;;;9.60;;
60655;SDS011;46477;53.616;10.064;2022-08-19T02:45:12;18.67;;;11.40;;
60655;SDS011;46477;53.616;10.064;2022-08-19T02:47:38;16.83;;;11.98;;
60655;SDS011;46477;53.616;10.064;2022-08-19T02:50:05;16.55;;;10.88;;
60655;SDS011;46477;53.616;10.064;2022-08-19T02:52:31;19.00;;;13.75;;
60655;SDS011;46477;53.616;10.064;2022-08-19T02:54:58;18.75;;;11.25;;
60655;SDS011;46477;53.616;10.064;2022-08-19T02:57:23;18.75;;;11.02;;
60655;SDS011;46477;53.616;10.064;2022-08-19T02:59:49;16.52;;;10.88;;
60655;SDS011;46477;53.616;10.064;2022-08-19T03:02:15;17.70;;;10.52;;
60655;SDS011;46477;53.616;10.064;2022-08-19T03:04:40;19.77;;;11.93;;
60655;SDS011;46477;53.616;10.064;2022-08-19T03:07:07;15.80;;;10.63;;
60655;SDS011;46477;53.616;10.064;2022-08-19T03:09:33;15.07;;;9.77;;
60655;SDS011;46477;53.616;10.064;2022-08-19T03:12:02;18.60;;;9.82;;
60655;SDS011;46477;53.616;10.064;2022-08-19T03:14:30;18.55;;;12.07;;
60655;SDS011;46477;53.616;10.064;2022-08-19T03:16:56;23.58;;;14.43;;
60655;SDS011;46477;53.616;10.064;2022-08-19T03:19:22;21.20;;;12.82;;
60655;SDS011;46477;53.616;10.064;2022-08-19T03:21:48;20.60;;;11.77;;
60655;SDS011;46477;53.616;10.064;2022-08-19T03:24:14;21.83;;;12.43;;
60655;SDS011;46477;53.616;10.064;2022-08-19T03:26:43;22.65;;;13.02;;
60655;SDS011;46477;53.616;10.064;2022-08-19T03:29:11;18.30;;;13.05;;
60655;SDS011;46477;53.616;10.064;2022-08-19T03:31:38;20.20;;;11.70;;
60655;SDS011;46477;53.616;10.064;2022-08-19T03:34:05;19.73;;;11.68;;
60655;SDS011;46477;53.616;10.064;2022-08-19T03:36:30;18.25;;;11.50;;
60655;SDS011;46477;53.616;10.064;2022-08-19T03:38:57;15.98;;;9.68;;
60655;SDS011;46477;53.616;10.064;2022-08-19T03:41:26;17.63;;;10.70;;
60655;SDS011;46477;53.616;10.064;2022-08-19T03:43:55;15.30;;;10.18;;
60655;SDS011;46477;53.616;10.064;2022-08-19T03:46:25;16.00;;;10.82;;
60655;SDS011;46477;53.616;10.064;2022-08-19T03:48:52;16.35;;;9.93;;
60655;SDS011;46477;53.616;10.064;2022-08-19T03:51:23;15.93;;;9.20;;
60655;SDS011;46477;53.616;10.064;2022-08-19T03:53:51;18.77;;;11.85;;
60655;SDS011;46477;53.616;10.064;2022-08-19T03:56:18;15.68;;;10.50;;
60655;SDS011;46477;53.616;10.064;2022-08-19T03:58:44;15.50;;;10.63;;
60655;SDS011;46477;53.616;10.064;2022-08-19T04:01:16;16.05;;;11.05;;
60655;SDS011;46477;53.616;10.064;2022-08-19T04:03:43;14.15;;;9.40;;
60655;SDS011;46477;53.616;10.064;2022-08-19T04:08:48;15.18;;;9.60;;
60655;SDS011;46477;53.616;10.064;2022-08-19T04:11:16;15.20;;;10.65;;
60655;SDS011;46477;53.616;10.064;2022-08-19T04:13:46;15.38;;;8.98;;
60655;SDS011;46477;53.616;10.064;2022-08-19T04:16:12;14.43;;;8.60;;
60655;SDS011;46477;53.616;10.064;2022-08-19T04:18:38;15.13;;;9.82;;
60655;SDS011;46477;53.616;10.064;2022-08-19T04:21:05;17.98;;;10.45;;
60655;SDS011;46477;53.616;10.064;2022-08-19T04:23:32;13.77;;;8.27;;
60655;SDS011;46477;53.616;10.064;2022-08-19T04:25:59;14.00;;;9.13;;
60655;SDS011;46477;53.616;10.064;2022-08-19T04:28:24;14.05;;;9.10;;
60655;SDS011;46477;53.616;10.064;2022-08-19T04:30:51;17.70;;;11.30;;
60655;SDS011;46477;53.616;10.064;2022-08-19T04:33:19;14.63;;;9.00;;
60655;SDS011;46477;53.616;10.064;2022-08-19T04:35:47;17.42;;;10.00;;
60655;SDS011;46477;53.616;10.064;2022-08-19T04:38:15;15.27;;;9.40;;
60655;SDS011;46477;53.616;10.064;2022-08-19T04:40:43;15.73;;;10.68;;
60655;SDS011;46477;53.616;10.064;2022-08-19T04:43:28;14.57;;;9.55;;
60655;SDS011;46477;53.616;10.064;2022-08-19T04:45:54;18.70;;;11.90;;
60655;SDS011;46477;53.616;10.064;2022-08-19T04:48:20;18.35;;;10.88;;
60655;SDS011;46477;53.616;10.064;2022-08-19T04:50:50;17.02;;;10.52;;
60655;SDS011;46477;53.616;10.064;2022-08-19T04:53:21;19.23;;;12.07;;
60655;SDS011;46477;53.616;10.064;2022-08-19T04:55:47;18.40;;;12.60;;
60655;SDS011;46477;53.616;10.064;2022-08-19T04:58:12;19.60;;;12.30;;
60655;SDS011;46477;53.616;10.064;2022-08-19T05:00:38;18.83;;;12.20;;
60655;SDS011;46477;53.616;10.064;2022-08-19T05:03:04;20.30;;;11.95;;
60655;SDS011;46477;53.616;10.064;2022-08-19T05:05:30;20.70;;;12.40;;
60655;SDS011;46477;53.616;10.064;2022-08-19T05:07:56;20.40;;;13.48;;
60655;SDS011;46477;53.616;10.064;2022-08-19T05:10:21;21.17;;;12.95;;
60655;SDS011;46477;53.616;10.064;2022-08-19T05:12:46;21.70;;;13.63;;
60655;SDS011;46477;53.616;10.064;2022-08-19T05:15:12;21.70;;;14.93;;
60655;SDS011;46477;53.616;10.064;2022-08-19T05:17:37;21.15;;;14.45;;
60655;SDS011;46477;53.616;10.064;2022-08-19T05:20:03;24.00;;;14.73;;
60655;SDS011;46477;53.616;10.064;2022-08-19T05:22:48;23.33;;;15.30;;
60655;SDS011;46477;53.616;10.064;2022-08-19T05:25:15;19.50;;;13.55;;
60655;SDS011;46477;53.616;10.064;2022-08-19T05:27:44;22.92;;;15.23;;
60655;SDS011;46477;53.616;10.064;2022-08-19T05:30:10;23.23;;;14.35;;
60655;SDS011;46477;53.616;10.064;2022-08-19T05:32:36;21.45;;;14.30;;
60655;SDS011;46477;53.616;10.064;2022-08-19T05:35:03;19.20;;;14.27;;
60655;SDS011;46477;53.616;10.064;2022-08-19T05:37:29;25.83;;;16.95;;
60655;SDS011;46477;53.616;10.064;2022-08-19T05:39:55;20.67;;;13.48;;
60655;SDS011;46477;53.616;10.064;2022-08-19T05:42:20;21.52;;;14.80;;
60655;SDS011;46477;53.616;10.064;2022-08-19T05:44:47;17.08;;;12.52;;
60655;SDS011;46477;53.616;10.064;2022-08-19T05:47:14;19.45;;;13.77;;
60655;SDS011;46477;53.616;10.064;2022-08-19T05:49:40;21.70;;;13.52;;
60655;SDS011;46477;53.616;10.064;2022-08-19T05:52:08;19.67;;;12.65;;
60655;SDS011;46477;53.616;10.064;2022-08-19T05:54:36;23.90;;;14.93;;
60655;SDS011;46477;53.616;10.064;2022-08-19T05:57:05;22.30;;;15.20;;
60655;SDS011;46477;53.616;10.064;2022-08-19T05:59:30;21.58;;;13.90;;
60655;SDS011;46477;53.616;10.064;2022-08-19T06:01:56;18.75;;;13.00;;
60655;SDS011;46477;53.616;10.064;2022-08-19T06:04:22;18.85;;;12.48;;
60655;SDS011;46477;53.616;10.064;2022-08-19T06:06:48;18.33;;;12.38;;
60655;SDS011;46477;53.616;10.064;2022-08-19T06:09:16;18.70;;;12.25;;
60655;SDS011;46477;53.616;10.064;2022-08-19T06:11:44;15.73;;;10.50;;
60655;SDS011;46477;53.616;10.064;2022-08-19T06:14:24;19.33;;;11.52;;
60655;SDS011;46477;53.616;10.064;2022-08-19T06:16:52;17.03;;;12.07;;
60655;SDS011;46477;53.616;10.064;2022-08-19T06:19:18;20.92;;;13.20;;
60655;SDS011;46477;53.616;10.064;2022-08-19T06:21:46;16.23;;;10.90;;
60655;SDS011;46477;53.616;10.064;2022-08-19T06:24:16;16.95;;;11.45;;
60655;SDS011;46477;53.616;10.064;2022-08-19T06:26:45;18.83;;;13.18;;
60655;SDS011;46477;53.616;10.064;2022-08-19T06:29:12;18.48;;;11.60;;
60655;SDS011;46477;53.616;10.064;2022-08-19T06:31:41;19.08;;;12.25;;
60655;SDS011;46477;53.616;10.064;2022-08-19T06:34:09;20.10;;;12.32;;
60655;SDS011;46477;53.616;10.064;2022-08-19T06:36:36;18.45;;;12.73;;
60655;SDS011;46477;53.616;10.064;2022-08-19T06:39:07;20.38;;;12.80;;
60655;SDS011;46477;53.616;10.064;2022-08-19T06:41:37;19.00;;;12.50;;
60655;SDS011;46477;53.616;10.064;2022-08-19T06:44:05;18.35;;;11.10;;
60655;SDS011;46477;53.616;10.064;2022-08-19T06:46:31;21.80;;;13.85;;
60655;SDS011;46477;53.616;10.064;2022-08-19T06:48:56;17.33;;;12.23;;
60655;SDS011;46477;53.616;10.064;2022-08-19T06:51:23;19.15;;;11.63;;
60655;SDS011;46477;53.616;10.064;2022-08-19T06:53:49;16.13;;;11.80;;
60655;SDS011;46477;53.616;10.064;2022-08-19T06:56:18;18.73;;;11.02;;
60655;SDS011;46477;53.616;10.064;2022-08-19T06:58:55;17.27;;;11.30;;
60655;SDS011;46477;53.616;10.064;2022-08-19T07:01:20;17.20;;;12.23;;
60655;SDS011;46477;53.616;10.064;2022-08-19T07:03:45;19.17;;;12.95;;
60655;SDS011;46477;53.616;10.064;2022-08-19T07:06:15;20.33;;;13.82;;
60655;SDS011;46477;53.616;10.064;2022-08-19T07:08:43;19.52;;;12.50;;
60655;SDS011;46477;53.616;10.064;2022-08-19T07:11:11;24.00;;;16.00;;
60655;SDS011;46477;53.616;10.064;2022-08-19T07:13:38;17.77;;;12.80;;
60655;SDS011;46477;53.616;10.064;2022-08-19T07:16:05;19.55;;;13.63;;
60655;SDS011;46477;53.616;10.064;2022-08-19T07:18:32;21.90;;;13.55;;
60655;SDS011;46477;53.616;10.064;2022-08-19T07:21:04;25.88;;;15.55;;
60655;SDS011;46477;53.616;10.064;2022-08-19T07:23:31;22.45;;;14.30;;
60655;SDS011;46477;53.616;10.064;2022-08-19T07:25:58;18.08;;;12.38;;
60655;SDS011;46477;53.616;10.064;2022-08-19T07:28:28;23.20;;;13.80;;
60655;SDS011;46477;53.616;10.064;2022-08-19T07:30:54;21.02;;;14.68;;
60655;SDS011;46477;53.616;10.064;2022-08-19T07:33:19;18.98;;;12.10;;
60655;SDS011;46477;53.616;10.064;2022-08-19T07:35:45;22.98;;;14.10;;
60655;SDS011;46477;53.616;10.064;2022-08-19T07:38:10;18.83;;;12.15;;
60655;SDS011;46477;53.616;10.064;2022-08-19T07:40:36;21.63;;;13.18;;
60655;SDS011;46477;53.616;10.064;2022-08-19T07:43:01;22.50;;;14.20;;
60655;SDS011;46477;53.616;10.064;2022-08-19T07:45:27;18.83;;;13.40;;
60655;SDS011;46477;53.616;10.064;2022-08-19T07:47:53;22.42;;;15.45;;
60655;SDS011;46477;53.616;10.064;2022-08-19T07:50:20;21.83;;;14.38;;
60655;SDS011;46477;53.616;10.064;2022-08-19T07:52:47;18.55;;;12.40;;
60655;SDS011;46477;53.616;10.064;2022-08-19T07:55:14;16.40;;;11.48;;
60655;SDS011;46477;53.616;10.064;2022-08-19T07:57:41;21.70;;;14.30;;
60655;SDS011;46477;53.616;10.064;2022-08-19T08:00:10;23.13;;;15.25;;
60655;SDS011;46477;53.616;10.064;2022-08-19T08:02:36;23.60;;;13.65;;
60655;SDS011;46477;53.616;10.064;2022-08-19T08:05:02;23.33;;;14.10;;
60655;SDS011;46477;53.616;10.064;2022-08-19T08:07:57;21.40;;;13.30;;
60655;SDS011;46477;53.616;10.064;2022-08-19T08:10:41;20.90;;;13.90;;
60655;SDS011;46477;53.616;10.064;2022-08-19T08:13:06;21.30;;;13.57;;
60655;SDS011;46477;53.616;10.064;2022-08-19T08:15:32;22.48;;;13.50;;
60655;SDS011;46477;53.616;10.064;2022-08-19T08:17:57;18.83;;;12.98;;
60655;SDS011;46477;53.616;10.064;2022-08-19T08:20:23;18.25;;;13.73;;
60655;SDS011;46477;53.616;10.064;2022-08-19T08:22:49;18.42;;;12.00;;
60655;SDS011;46477;53.616;10.064;2022-08-19T08:25:33;17.65;;;11.02;;
60655;SDS011;46477;53.616;10.064;2022-08-19T08:28:01;20.67;;;13.32;;
60655;SDS011;46477;53.616;10.064;2022-08-19T08:30:27;16.52;;;11.65;;
60655;SDS011;46477;53.616;10.064;2022-08-19T08:32:54;15.52;;;9.75;;
60655;SDS011;46477;53.616;10.064;2022-08-19T08:35:21;14.02;;;9.35;;
60655;SDS011;46477;53.616;10.064;2022-08-19T08:37:48;14.32;;;10.20;;
60655;SDS011;46477;53.616;10.064;2022-08-19T08:40:19;13.35;;;8.75;;
60655;SDS011;46477;53.616;10.064;2022-08-19T08:43:07;14.20;;;9.07;;
60655;SDS011;46477;53.616;10.064;2022-08-19T08:45:41;12.95;;;8.98;;
60655;SDS011;46477;53.616;10.064;2022-08-19T08:53:13;13.20;;;9.15;;
60655;SDS011;46477;53.616;10.064;2022-08-19T08:55:42;13.80;;;9.40;;
60655;SDS011;46477;53.616;10.064;2022-08-19T08:58:11;16.20;;;10.63;;
60655;SDS011;46477;53.616;10.064;2022-08-19T09:00:43;15.25;;;10.43;;
60655;SDS011;46477;53.616;10.064;2022-08-19T09:03:16;12.73;;;9.15;;
60655;SDS011;46477;53.616;10.064;2022-08-19T09:06:01;13.73;;;9.40;;
60655;SDS011;46477;53.616;10.064;2022-08-19T09:08:40;14.70;;;9.38;;
60655;SDS011;46477;53.616;10.064;2022-08-19T09:11:15;12.48;;;8.43;;
60655;SDS011;46477;53.616;10.064;2022-08-19T09:16:57;11.73;;;8.90;;
60655;SDS011;46477;53.616;10.064;2022-08-19T09:19:22;13.95;;;9.15;;
60655;SDS011;46477;53.616;10.064;2022-08-19T09:21:48;12.40;;;9.05;;
60655;SDS011;46477;53.616;10.064;2022-08-19T09:24:14;12.10;;;7.70;;
60655;SDS011;46477;53.616;10.064;2022-08-19T09:26:39;14.52;;;9.07;;
60655;SDS011;46477;53.616;10.064;2022-08-19T09:29:05;12.35;;;8.82;;
60655;SDS011;46477;53.616;10.064;2022-08-19T09:31:31;12.32;;;8.65;;
60655;SDS011;46477;53.616;10.064;2022-08-19T09:33:57;13.60;;;9.38;;
60655;SDS011;46477;53.616;10.064;2022-08-19T09:36:24;13.85;;;8.77;;
60655;SDS011;46477;53.616;10.064;2022-08-19T09:38:52;14.00;;;8.75;;
60655;SDS011;46477;53.616;10.064;2022-08-19T09:41:18;15.38;;;9.45;;
60655;SDS011;46477;53.616;10.064;2022-08-19T09:43:46;11.60;;;8.20;;
60655;SDS011;46477;53.616;10.064;2022-08-19T09:46:16;14.02;;;9.38;;
60655;SDS011;46477;53.616;10.064;2022-08-19T09:48:43;16.30;;;10.55;;
60655;SDS011;46477;53.616;10.064;2022-08-19T09:51:13;14.45;;;8.70;;
60655;SDS011;46477;53.616;10.064;2022-08-19T09:53:45;15.43;;;9.82;;
60655;SDS011;46477;53.616;10.064;2022-08-19T09:56:12;12.15;;;8.63;;
60655;SDS011;46477;53.616;10.064;2022-08-19T09:58:38;11.93;;;7.85;;
60655;SDS011;46477;53.616;10.064;2022-08-19T10:01:05;15.35;;;9.60;;
60655;SDS011;46477;53.616;10.064;2022-08-19T10:03:32;16.02;;;8.63;;
60655;SDS011;46477;53.616;10.064;2022-08-19T10:06:00;14.80;;;9.23;;
60655;SDS011;46477;53.616;10.064;2022-08-19T10:08:31;16.65;;;10.40;;
60655;SDS011;46477;53.616;10.064;2022-08-19T10:10:59;13.63;;;8.95;;
60655;SDS011;46477;53.616;10.064;2022-08-19T10:13:27;14.05;;;8.68;;
60655;SDS011;46477;53.616;10.064;2022-08-19T10:15:54;13.48;;;9.15;;
60655;SDS011;46477;53.616;10.064;2022-08-19T10:18:22;13.25;;;7.50;;
60655;SDS011;46477;53.616;10.064;2022-08-19T10:20:49;11.02;;;7.75;;
60655;SDS011;46477;53.616;10.064;2022-08-19T10:23:17;12.43;;;8.25;;
60655;SDS011;46477;53.616;10.064;2022-08-19T10:25:44;11.30;;;7.45;;
60655;SDS011;46477;53.616;10.064;2022-08-19T10:28:09;13.50;;;9.23;;
60655;SDS011;46477;53.616;10.064;2022-08-19T10:30:37;13.18;;;8.35;;
60655;SDS011;46477;53.616;10.064;2022-08-19T10:33:04;12.60;;;9.10;;
60655;SDS011;46477;53.616;10.064;2022-08-19T10:35:30;11.43;;;7.60;;
60655;SDS011;46477;53.616;10.064;2022-08-19T10:37:56;10.95;;;7.60;;
60655;SDS011;46477;53.616;10.064;2022-08-19T10:40:26;13.05;;;8.25;;
60655;SDS011;46477;53.616;10.064;2022-08-19T10:42:55;13.13;;;8.38;;
60655;SDS011;46477;53.616;10.064;2022-08-19T10:45:21;11.18;;;7.93;;
60655;SDS011;46477;53.616;10.064;2022-08-19T10:47:48;11.65;;;8.68;;
60655;SDS011;46477;53.616;10.064;2022-08-19T10:50:13;11.88;;;8.10;;
60655;SDS011;46477;53.616;10.064;2022-08-19T10:52:57;11.02;;;7.40;;
60655;SDS011;46477;53.616;10.064;2022-08-19T10:55:29;14.32;;;8.40;;
60655;SDS011;46477;53.616;10.064;2022-08-19T10:58:13;16.33;;;9.88;;
60655;SDS011;46477;53.616;10.064;2022-08-19T11:00:42;14.27;;;9.27;;
60655;SDS011;46477;53.616;10.064;2022-08-19T11:03:08;14.65;;;8.98;;
60655;SDS011;46477;53.616;10.064;2022-08-19T11:05:34;17.45;;;10.15;;
60655;SDS011;46477;53.616;10.064;2022-08-19T11:08:00;12.93;;;9.15;;
60655;SDS011;46477;53.616;10.064;2022-08-19T11:10:25;13.65;;;9.77;;
60655;SDS011;46477;53.616;10.064;2022-08-19T11:12:51;11.75;;;7.88;;
60655;SDS011;46477;53.616;10.064;2022-08-19T11:15:20;13.30;;;9.48;;
60655;SDS011;46477;53.616;10.064;2022-08-19T11:17:46;16.08;;;11.48;;
60655;SDS011;46477;53.616;10.064;2022-08-19T11:20:12;13.88;;;9.63;;
60655;SDS011;46477;53.616;10.064;2022-08-19T11:22:39;16.38;;;10.88;;
60655;SDS011;46477;53.616;10.064;2022-08-19T11:25:06;13.93;;;9.50;;
60655;SDS011;46477;53.616;10.064;2022-08-19T11:27:32;12.98;;;8.88;;
60655;SDS011;46477;53.616;10.064;2022-08-19T11:29:58;13.50;;;9.90;;
60655;SDS011;46477;53.616;10.064;2022-08-19T11:32:25;17.08;;;10.30;;
60655;SDS011;46477;53.616;10.064;2022-08-19T11:34:51;11.30;;;8.65;;
60655;SDS011;46477;53.616;10.064;2022-08-19T11:37:16;11.68;;;8.07;;
60655;SDS011;46477;53.616;10.064;2022-08-19T11:39:42;11.32;;;8.40;;
60655;SDS011;46477;53.616;10.064;2022-08-19T11:42:07;13.18;;;8.23;;
60655;SDS011;46477;53.616;10.064;2022-08-19T11:44:51;10.43;;;6.93;;
60655;SDS011;46477;53.616;10.064;2022-08-19T11:47:17;13.45;;;8.40;;
60655;SDS011;46477;53.616;10.064;2022-08-19T11:49:43;11.23;;;8.02;;
60655;SDS011;46477;53.616;10.064;2022-08-19T11:52:08;14.02;;;9.82;;
60655;SDS011;46477;53.616;10.064;2022-08-19T11:54:34;11.32;;;7.90;;
60655;SDS011;46477;53.616;10.064;2022-08-19T11:56:59;13.38;;;8.23;;
60655;SDS011;46477;53.616;10.064;2022-08-19T11:59:28;10.38;;;6.82;;
60655;SDS011;46477;53.616;10.064;2022-08-19T12:01:54;12.50;;;7.85;;
60655;SDS011;46477;53.616;10.064;2022-08-19T12:04:20;12.65;;;8.60;;
60655;SDS011;46477;53.616;10.064;2022-08-19T12:06:46;10.85;;;7.75;;
60655;SDS011;46477;53.616;10.064;2022-08-19T12:09:12;11.30;;;8.18;;
60655;SDS011;46477;53.616;10.064;2022-08-19T12:11:39;9.35;;;6.78;;
60655;SDS011;46477;53.616;10.064;2022-08-19T12:14:05;9.60;;;7.43;;
60655;SDS011;46477;53.616;10.064;2022-08-19T12:16:34;11.70;;;8.13;;
60655;SDS011;46477;53.616;10.064;2022-08-19T12:19:00;9.73;;;6.93;;
60655;SDS011;46477;53.616;10.064;2022-08-19T12:21:29;11.13;;;7.57;;
60655;SDS011;46477;53.616;10.064;2022-08-19T12:23:56;9.77;;;6.85;;
60655;SDS011;46477;53.616;10.064;2022-08-19T12:26:23;11.77;;;7.72;;
60655;SDS011;46477;53.616;10.064;2022-08-19T12:28:51;9.82;;;6.68;;
60655;SDS011;46477;53.616;10.064;2022-08-19T12:31:16;10.18;;;7.75;;
60655;SDS011;46477;53.616;10.064;2022-08-19T12:33:42;14.27;;;10.52;;
60655;SDS011;46477;53.616;10.064;2022-08-19T12:36:09;10.40;;;6.95;;
60655;SDS011;46477;53.616;10.064;2022-08-19T12:38:36;10.45;;;7.28;;
60655;SDS011;46477;53.616;10.064;2022-08-19T12:41:04;8.95;;;7.18;;
60655;SDS011;46477;53.616;10.064;2022-08-19T12:43:35;7.90;;;5.53;;
60655;SDS011;46477;53.616;10.064;2022-08-19T12:46:01;11.38;;;7.00;;
60655;SDS011;46477;53.616;10.064;2022-08-19T12:48:29;9.82;;;7.50;;
60655;SDS011;46477;53.616;10.064;2022-08-19T12:50:54;11.00;;;7.95;;
60655;SDS011;46477;53.616;10.064;2022-08-19T12:53:20;8.57;;;6.60;;
60655;SDS011;46477;53.616;10.064;2022-08-19T12:55:45;10.05;;;6.88;;
60655;SDS011;46477;53.616;10.064;2022-08-19T12:58:11;11.50;;;7.63;;
60655;SDS011;46477;53.616;10.064;2022-08-19T13:00:37;9.63;;;6.38;;
60655;SDS011;46477;53.616;10.064;2022-08-19T13:03:03;11.38;;;7.13;;
60655;SDS011;46477;53.616;10.064;2022-08-19T13:05:29;9.35;;;6.35;;
60655;SDS011;46477;53.616;10.064;2022-08-19T13:07:57;9.95;;;7.35;;
60655;SDS011;46477;53.616;10.064;2022-08-19T13:10:25;8.68;;;6.38;;
60655;SDS011;46477;53.616;10.064;2022-08-19T13:12:53;11.77;;;7.32;;
60655;SDS011;46477;53.616;10.064;2022-08-19T13:15:20;8.38;;;6.28;;
60655;SDS011;46477;53.616;10.064;2022-08-19T13:17:46;8.38;;;6.43;;
60655;SDS011;46477;53.616;10.064;2022-08-19T13:20:14;9.10;;;6.43;;
60655;SDS011;46477;53.616;10.064;2022-08-19T13:22:41;7.20;;;6.03;;
60655;SDS011;46477;53.616;10.064;2022-08-19T13:25:07;8.38;;;5.93;;
60655;SDS011;46477;53.616;10.064;2022-08-19T13:27:34;9.88;;;6.32;;
60655;SDS011;46477;53.616;10.064;2022-08-19T13:30:00;9.60;;;7.00;;
60655;SDS011;46477;53.616;10.064;2022-08-19T13:32:45;8.73;;;6.65;;
60655;SDS011;46477;53.616;10.064;2022-08-19T13:35:30;8.65;;;6.15;;
60655;SDS011;46477;53.616;10.064;2022-08-19T13:37:55;9.30;;;6.78;;
60655;SDS011;46477;53.616;10.064;2022-08-19T13:40:24;11.50;;;8.98;;
60655;SDS011;46477;53.616;10.064;2022-08-19T13:42:51;11.02;;;7.97;;
60655;SDS011;46477;53.616;10.064;2022-08-19T13:45:20;8.35;;;6.32;;
60655;SDS011;46477;53.616;10.064;2022-08-19T13:47:48;10.80;;;8.20;;
60655;SDS011;46477;53.616;10.064;2022-08-19T13:50:16;11.60;;;8.57;;
60655;SDS011;46477;53.616;10.064;2022-08-19T13:52:44;9.80;;;6.50;;
60655;SDS011;46477;53.616;10.064;2022-08-19T13:55:11;8.48;;;6.05;;
60655;SDS011;46477;53.616;10.064;2022-08-19T13:57:37;8.77;;;7.00;;
60655;SDS011;46477;53.616;10.064;2022-08-19T14:00:15;11.13;;;7.65;;
60655;SDS011;46477;53.616;10.064;2022-08-19T14:02:43;9.00;;;7.63;;
60655;SDS011;46477;53.616;10.064;2022-08-19T14:05:10;9.70;;;6.63;;
60655;SDS011;46477;53.616;10.064;2022-08-19T14:07:37;9.95;;;7.20;;
60655;SDS011;46477;53.616;10.064;2022-08-19T14:10:03;8.43;;;6.68;;
60655;SDS011;46477;53.616;10.064;2022-08-19T14:12:30;8.98;;;6.68;;
60655;SDS011;46477;53.616;10.064;2022-08-19T14:14:57;9.00;;;6.57;;
60655;SDS011;46477;53.616;10.064;2022-08-19T14:17:22;9.20;;;6.40;;
60655;SDS011;46477;53.616;10.064;2022-08-19T14:19:48;9.07;;;7.18;;
60655;SDS011;46477;53.616;10.064;2022-08-19T14:22:13;10.65;;;6.88;;
60655;SDS011;46477;53.616;10.064;2022-08-19T14:24:39;8.40;;;6.90;;
60655;SDS011;46477;53.616;10.064;2022-08-19T14:27:05;8.07;;;5.70;;
60655;SDS011;46477;53.616;10.064;2022-08-19T14:29:31;8.45;;;6.22;;
60655;SDS011;46477;53.616;10.064;2022-08-19T14:31:57;9.82;;;7.25;;
60655;SDS011;46477;53.616;10.064;2022-08-19T14:34:24;10.15;;;7.75;;
60655;SDS011;46477;53.616;10.064;2022-08-19T14:36:50;8.18;;;6.53;;